Neptune Antlia — S6BE — position and weather

sailwx.info

Track history (hours):
 
Tides and Currents Weather Stations Pressure Air Temp Water Temp Dewpoint Dewpoint Depression Visibility Wind Speed Wind Dir Waves Ship Positions

Neptune Antlia

Last reported at 2016-Aug-30 08:24 UTC. Time now 2016-Aug-30 10:54 UTC.
Position S 34°58' E 033°27'.

Type: Cargo ship. MMSI: 563737000.

Date/timePositionNaut miles runAvg speedWind from/ knotsBaromVisibWave heightAir tempDewpointWater temp
2016-Aug-30 08:24S 34°58' E 033°27'1212.1
2016-Aug-30 07:25S 34°58' E 033°13'2512.3
2016-Aug-30 05:25S 34°59' E 032°43'1011.5
2016-Aug-30 04:33S 35°00' E 032°31'1111.3
2016-Aug-30 03:33S 34°59' E 032°17'1110.8
2016-Aug-30 02:33S 34°59' E 032°04'1311.2
2016-Aug-30 01:25S 34°59' E 031°48'1010.9
2016-Aug-30 00:28S 34°59' E 031°35'1010.9
2016-Aug-29 23:33S 34°59' E 031°23'1110.7
2016-Aug-29 22:34S 34°60' E 031°10'1110.6
2016-Aug-29 21:33S 34°60' E 030°57'1010.3
2016-Aug-29 20:33S 34°60' E 030°45'1110.6
2016-Aug-29 19:33S 34°60' E 030°32'1010.3
2016-Aug-29 18:33S 34°60' E 030°19'1110.3
2016-Aug-29 17:28S 34°60' E 030°06'3510.4
2016-Aug-29 14:04S 35°02' E 029°23'  
Track history (hours):
 
Tides and Currents Weather Stations Pressure Air Temp Water Temp Dewpoint Dewpoint Depression Visibility Wind Speed Wind Dir Waves Ship Positions

Neptune Antlia

Last reported at 2016-Aug-30 08:24 UTC. Time now 2016-Aug-30 10:54 UTC.
Position S 34°58' E 033°27'.

Type: Cargo ship. MMSI: 563737000.

Date/timePositionNaut miles runAvg speedWind from/ knotsBaromVisibWave heightAir tempDewpointWater temp
2016-Aug-30 08:24S 34°58' E 033°27'1212.1
2016-Aug-30 07:25S 34°58' E 033°13'2512.3
2016-Aug-30 05:25S 34°59' E 032°43'1011.5
2016-Aug-30 04:33S 35°00' E 032°31'1111.3
2016-Aug-30 03:33S 34°59' E 032°17'1110.8
2016-Aug-30 02:33S 34°59' E 032°04'1311.2
2016-Aug-30 01:25S 34°59' E 031°48'1010.9
2016-Aug-30 00:28S 34°59' E 031°35'1010.9
2016-Aug-29 23:33S 34°59' E 031°23'1110.7
2016-Aug-29 22:34S 34°60' E 031°10'1110.6
2016-Aug-29 21:33S 34°60' E 030°57'1010.3
2016-Aug-29 20:33S 34°60' E 030°45'1110.6
2016-Aug-29 19:33S 34°60' E 030°32'1010.3
2016-Aug-29 18:33S 34°60' E 030°19'1110.3
2016-Aug-29 17:28S 34°60' E 030°06'3510.4
2016-Aug-29 14:04S 35°02' E 029°23'  

Dump ship's entire track history